Ulysses, KS

7:54 PM CDT on April 19, 2015 (GMT -0500)
Garden City Co-op Milepost | | Change Station
CLOSE
Current Station
Personal Weather Station
Location: Ulysses, KS
Elevation: 3133 ft
Nearby Weather Stations
Active Advisory: Frost Advisory

Elev 3133 ft 37.56 °N, 101.46 °W | Updated 2 seconds ago

Clear
Clear
51.8 °F
Feels Like 51.8 °F
N
16.1
Wind Variable Wind from North
Gusts 17.0 mph

Today
High -- | Low -- °F
--% Chance of Precip.
Yesterday
High -- | Low -- °F
Precip. -- in
7:05 AM 8:24 PM
New Moon, 2% visible
Pressure 29.95 in
Visibility 10.0 miles
Clouds Few 7500 ft
Dew Point 25 °F
Humidity 35%
Rainfall 0.00 in
Snow Depth Not available.
UV 1 out of 12
Pollen 4.20 out of 12
Air Quality Not available.
Flu Activity Sporadic
METAR KGCK 192354Z 35023G30KT 10SM FEW075 11/M05 A2996 RMK AO2 PK WND 35036/2307 SLP142 T01111050 10139 20078 53004

More Conditions Fewer Conditions

Pressure 29.95 in
Visibility 10.0 miles
Clouds Few 7500 ft
Dew Point 25 °F
Humidity 35%
Rainfall 0.00 in
Snow Depth Not available.
UV 1 out of 12
Pollen 4.20 out of 12
Air Quality Not available.
Flu Activity Sporadic
METAR KGCK 192354Z 35023G30KT 10SM FEW075 11/M05 A2996 RMK AO2 PK WND 35036/2307 SLP142 T01111050 10139 20078 53004

More Conditions Fewer Conditions

10-Day Weather Forecast

Almanac

Astronomy

Apr. 19, 2015 Rise Set
Actual Time
Civil Twilight
Nautical Twilight
Astronomical Twilight
Moon
Length of Visible Light
Length of Day
Tomorrow will be .
, % of the Moon is Illuminated

Today's Extremes

State Highs State Lows

Community

WunderPhotos

Upload Photos

1,815,065 photos uploaded!

WunderBlogs® & News

Nearby

Air Quality

  Air Quality AQ Index Pollutant
Not available.

Snow Depth

Station Depth Elevation

Earthquake Activity

City Distance Mag. Time & Date
Minimum magnitude displayed is 2.5.

Coastal Water Temperatures

Place Temperature

Stations

Nearby Weather Stations

Station Location Temp. Windchill Dew Point Humidity Wind Precip. Elev Updated Type
                   
Frost Advisory
Statement as of 2:19 PM CDT on April 19, 2015

... Frost advisory in effect from 4 am CDT /3 am MDT/ to 10 am CDT
/9 am MDT/ Monday...

The National Weather Service in Dodge City has issued a frost
advisory... which is in effect from 4 am CDT /3 am MDT/ to 10 am
CDT /9 am MDT/ Monday.

* Temperature... 33 to 36.

* Impacts... recently bloomed vegetation might be damaged by the
cold temperatures.

Precautionary/preparedness actions...

A frost advisory means that frost is possible. Sensitive outdoor
plants may be killed if left uncovered.